Belize, Belize

7:33 AM CST on October 25, 2014 (GMT -0600)
Philip S W Goldson International | Change Station
CLOSE
Current Station
Airport
Location: Belize,
Elevation: 16 ft
Nearby Weather Stations

Elev 16 ft 17.54 °N, 88.31 °W | Updated 33 minutes ago

Mostly Cloudy
Mostly Cloudy
75 °F
Feels Like 75 °F
N
12
Wind Variable Wind from NW

Today
High -- | Low -- °F
--% Chance of Precip.
Yesterday
High -- | Low -- °F
Precip. -- in
5:49 AM 5:24 PM
Waxing Crescent, 3% visible
Pressure 29.98 in
Visibility 6.2 miles
Clouds Mostly Cloudy 1000 ft
Mostly Cloudy 4500 ft
Dew Point 72 °F
Humidity 89%
Rainfall 0.00 in
Snow Depth Not available.
UV 1 out of 12
Pollen Not available.
Air Quality Not available.
Flu Activity Not available.
METAR MZBZ 251300Z 32010KT 9999 BKN010 BKN045 24/22 A2998 Q1015 NOSIG

More Conditions Fewer Conditions

Pressure 29.98 in
Visibility 6.2 miles
Clouds Mostly Cloudy 1000 ft
Mostly Cloudy 4500 ft
Dew Point 72 °F
Humidity 89%
Rainfall 0.00 in
Snow Depth Not available.
UV 1 out of 12
Pollen Not available.
Air Quality Not available.
Flu Activity Not available.
METAR MZBZ 251300Z 32010KT 9999 BKN010 BKN045 24/22 A2998 Q1015 NOSIG

More Conditions Fewer Conditions

10-Day Weather Forecast

Almanac

Astronomy

Oct. 25, 2014 Rise Set
Actual Time 5:49 AM CST 5:24 PM CST
Civil Twilight 5:27 AM CST 5:47 PM CST
Nautical Twilight 5:01 AM CST 6:12 PM CST
Astronomical Twilight 4:36 AM CST 6:38 PM CST
Moon 7:17 AM CST 6:59 PM CST
Length of Visible Light 12h 19m
Length of Day
11h 35m
Tomorrow will be 0m 54s shorter.
Waxing Crescent, 3% of the Moon is Illuminated
Today
Waxing Crescent
Oct 30
First Quarter
Nov 6
Full
Nov 14
Last Quarter
Nov 22
New

Yesterday's Extremes

Country Highs Country Lows

Community

WunderPhotos

Upload Photos

1,764,829 photos uploaded!

Nearby

Snow Depth

Not available.

Earthquake Activity

City Distance Mag. Time & Date
No recent earthquake activity has been reported nearby.
Minimum magnitude displayed is 2.5.

Coastal Water Temperatures

Place Temperature
No Stations Reporting

Nearby Weather Stations